Terminal Aerodrome Forecast
Issued by NWS

Home | Current Version | Previous Version | Graphics & Text | Print | Product List | Glossary On
Versions: 1 2 3 4 5 6 7 8 9 10 11 12 13 14 15
000
FTUS43 KBIS 160500
TAFDIK
TAF
KDIK 160526Z 1606/1706 09015KT P6SM SCT030 BKN090
     FM160900 09014KT 5SM BR VCSH SCT020 OVC030
     FM161100 08012KT 3SM BR VCSH OVC015
     FM161500 04016KT 5SM BR OVC012
     FM162100 05012KT P6SM BKN035=

USA.gov is the U.S. government's official web portal to all federal, state and local government web resources and services.